createdAt,value
2018-09-12T00:01:10.159Z,8.70
2018-09-12T00:03:39.043Z,6.03
2018-09-12T00:06:07.956Z,6.07
2018-09-12T00:08:36.908Z,5.90
2018-09-12T00:11:05.815Z,5.80
2018-09-12T00:13:34.734Z,6.30
2018-09-12T00:16:03.622Z,7.83
2018-09-12T00:18:32.571Z,6.80
2018-09-12T00:21:01.514Z,5.83
2018-09-12T00:23:30.431Z,7.87
2018-09-12T00:25:59.312Z,6.47
2018-09-12T00:28:28.204Z,7.87
2018-09-12T00:30:57.143Z,7.97
2018-09-12T00:33:26.022Z,5.30
2018-09-12T00:35:54.923Z,7.87
2018-09-12T00:38:23.792Z,6.60
2018-09-12T00:40:52.815Z,6.03
2018-09-12T00:43:21.691Z,6.07
2018-09-12T00:45:50.607Z,6.70
2018-09-12T00:48:19.495Z,5.77
2018-09-12T00:50:48.381Z,5.30
2018-09-12T00:53:17.281Z,5.90
2018-09-12T00:55:46.374Z,8.30
2018-09-12T00:58:15.260Z,6.10
2018-09-12T01:00:44.128Z,6.30
2018-09-12T01:03:13.141Z,5.33
2018-09-12T01:05:43.065Z,7.97
2018-09-12T01:08:13.391Z,5.53
2018-09-12T01:10:42.322Z,6.43
2018-09-12T01:13:11.282Z,7.73
2018-09-12T01:15:40.235Z,7.00
2018-09-12T01:18:13.260Z,6.27
2018-09-12T01:20:42.223Z,7.33
2018-09-12T01:23:11.172Z,5.30
2018-09-12T01:25:40.072Z,8.03
2018-09-12T01:28:08.963Z,5.40
2018-09-12T01:30:37.981Z,12.30
2018-09-12T01:33:06.940Z,6.50
2018-09-12T01:35:35.880Z,7.60
2018-09-12T01:38:04.849Z,7.10
2018-09-12T01:40:33.719Z,7.77
2018-09-12T01:43:02.591Z,5.20
2018-09-12T01:45:31.443Z,12.00
2018-09-12T01:48:00.424Z,7.40
2018-09-12T01:50:29.283Z,5.60
2018-09-12T01:52:58.172Z,7.57
2018-09-12T01:55:27.036Z,6.13
2018-09-12T01:57:55.973Z,8.17
2018-09-12T02:00:29.860Z,6.43
2018-09-12T02:02:58.787Z,7.80
2018-09-12T02:05:27.691Z,10.63
2018-09-12T02:07:56.546Z,6.70
2018-09-12T02:10:25.431Z,8.20
2018-09-12T02:12:54.307Z,7.63
2018-09-12T02:15:23.196Z,5.77
2018-09-12T02:17:52.117Z,6.53
2018-09-12T02:20:21.043Z,5.90
2018-09-12T02:22:49.922Z,8.70
2018-09-12T02:25:18.882Z,6.10
2018-09-12T02:27:47.812Z,7.70
2018-09-12T02:30:16.696Z,6.43
2018-09-12T02:32:45.579Z,5.67
2018-09-12T02:35:14.510Z,6.37
2018-09-12T02:37:43.465Z,6.50
2018-09-12T02:40:12.356Z,6.00
2018-09-12T02:42:41.301Z,7.43
2018-09-12T02:45:10.259Z,5.97
2018-09-12T02:47:40.090Z,7.17
2018-09-12T02:50:12.111Z,6.53
2018-09-12T02:52:41.019Z,8.17
2018-09-12T02:55:11.512Z,9.40
2018-09-12T02:57:40.405Z,6.13
2018-09-12T03:00:09.963Z,8.13
2018-09-12T03:02:38.841Z,5.10
2018-09-12T03:05:08.012Z,6.37
2018-09-12T03:07:36.887Z,6.67
2018-09-12T03:10:06.659Z,6.23
2018-09-12T03:12:35.580Z,8.43
2018-09-12T03:15:04.538Z,7.53
2018-09-12T03:17:33.444Z,9.43
2018-09-12T03:20:02.342Z,8.70
2018-09-12T03:22:31.329Z,11.30
2018-09-12T03:25:00.282Z,40.40
2018-09-12T03:27:29.222Z,66.13
2018-09-12T03:29:58.227Z,10.63
2018-09-12T03:32:27.120Z,11.57
2018-09-12T03:34:56.011Z,9.67
2018-09-12T03:37:24.893Z,8.40
2018-09-12T03:39:53.795Z,9.17
2018-09-12T03:42:22.757Z,13.43
2018-09-12T03:44:51.652Z,12.03
2018-09-12T03:47:20.607Z,16.13
2018-09-12T03:49:49.483Z,11.33
2018-09-12T03:52:18.383Z,11.13
2018-09-12T03:54:47.269Z,13.90
2018-09-12T03:57:16.170Z,13.77
2018-09-12T03:59:45.116Z,17.27
2018-09-12T04:02:14.080Z,69.50
2018-09-12T04:04:43.032Z,235.07
2018-09-12T04:07:11.957Z,37.57
2018-09-12T04:09:40.871Z,25.83
2018-09-12T04:12:09.811Z,17.07
2018-09-12T04:14:38.738Z,19.30
2018-09-12T04:17:07.685Z,20.03
2018-09-12T04:19:36.679Z,20.60
2018-09-12T04:22:05.596Z,16.70
2018-09-12T04:24:34.588Z,19.57
2018-09-12T04:27:03.480Z,19.03
2018-09-12T04:29:32.404Z,19.57
2018-09-12T04:32:01.322Z,20.40
2018-09-12T04:34:30.220Z,15.13
2018-09-12T04:36:59.128Z,23.03
2018-09-12T04:39:28.012Z,20.97
2018-09-12T04:41:56.904Z,24.83
2018-09-12T04:44:25.808Z,25.70
2018-09-12T04:46:54.829Z,23.57
2018-09-12T04:49:23.868Z,21.57
2018-09-12T04:51:52.808Z,20.83
2018-09-12T04:54:21.688Z,22.67
2018-09-12T04:56:50.564Z,19.73
2018-09-12T04:59:19.443Z,22.80
2018-09-12T05:01:48.429Z,16.87
2018-09-12T05:04:17.379Z,16.30
2018-09-12T05:06:46.272Z,15.47
2018-09-12T05:09:15.172Z,23.77
2018-09-12T05:11:44.075Z,23.37
2018-09-12T05:14:12.968Z,18.67
2018-09-12T05:16:41.976Z,18.67
2018-09-12T05:19:10.843Z,17.87
2018-09-12T05:21:39.856Z,17.43
2018-09-12T05:24:08.736Z,18.30
2018-09-12T05:26:37.654Z,19.70
2018-09-12T05:29:06.572Z,15.33
2018-09-12T05:31:35.486Z,18.90
2018-09-12T05:34:04.384Z,18.97
2018-09-12T05:36:33.502Z,16.27
2018-09-12T05:39:02.493Z,18.37
2018-09-12T05:41:31.371Z,24.90
2018-09-12T05:44:00.309Z,17.73
2018-09-12T05:46:29.210Z,17.37
2018-09-12T05:48:58.080Z,16.17
2018-09-12T05:51:26.967Z,16.40
2018-09-12T05:53:55.840Z,20.50
2018-09-12T05:56:24.732Z,20.93
2018-09-12T05:58:53.990Z,19.30
2018-09-12T06:01:22.964Z,16.70
2018-09-12T06:03:51.859Z,16.93
2018-09-12T06:06:20.800Z,17.20
2018-09-12T06:08:49.674Z,20.47
2018-09-12T06:11:18.544Z,16.87
2018-09-12T06:13:47.484Z,22.03
2018-09-12T06:16:16.372Z,20.40
2018-09-12T06:18:45.273Z,17.80
2018-09-12T06:21:14.156Z,16.97
2018-09-12T06:23:43.091Z,13.83
2018-09-12T06:26:12.045Z,13.63
2018-09-12T06:28:40.941Z,17.67
2018-09-12T06:31:09.831Z,14.40
2018-09-12T06:33:38.781Z,16.77
2018-09-12T06:36:07.683Z,14.27
2018-09-12T06:38:36.593Z,13.50
2018-09-12T06:41:05.522Z,15.03
2018-09-12T06:43:34.408Z,12.90
2018-09-12T06:46:03.390Z,14.13
2018-09-12T06:48:32.331Z,14.13
2018-09-12T06:51:01.320Z,16.00
2018-09-12T06:53:30.431Z,17.10
2018-09-12T06:55:59.316Z,11.97
2018-09-12T06:58:28.280Z,10.90
2018-09-12T07:00:57.239Z,12.03
2018-09-12T07:03:26.133Z,13.47
2018-09-12T07:05:55.038Z,9.70
2018-09-12T07:08:23.981Z,7.23
2018-09-12T07:10:52.886Z,12.53
2018-09-12T07:13:21.843Z,7.20
2018-09-12T07:15:51.070Z,8.57
2018-09-12T07:18:20.025Z,11.23
2018-09-12T07:20:48.967Z,7.37
2018-09-12T07:23:17.862Z,8.93
2018-09-12T07:25:46.768Z,8.77
2018-09-12T07:28:15.661Z,11.10
2018-09-12T07:30:44.608Z,8.67
2018-09-12T07:33:13.490Z,7.27
2018-09-12T07:35:42.400Z,7.90
2018-09-12T07:38:11.305Z,9.03
2018-09-12T07:40:40.183Z,10.23
2018-09-12T07:43:09.116Z,9.17
2018-09-12T07:45:38.036Z,6.33
2018-09-12T07:48:07.132Z,5.73
2018-09-12T07:50:36.203Z,6.33
2018-09-12T07:53:05.199Z,6.70
2018-09-12T07:55:34.179Z,8.73
2018-09-12T07:58:03.047Z,8.50
2018-09-12T08:00:31.957Z,7.33
2018-09-12T08:03:00.836Z,9.07
2018-09-12T08:05:29.721Z,8.17
2018-09-12T08:07:58.599Z,9.00
2018-09-12T08:10:27.523Z,9.03
2018-09-12T08:12:56.405Z,7.30
2018-09-12T08:15:25.423Z,7.20
2018-09-12T08:17:54.349Z,9.27
2018-09-12T08:20:23.282Z,8.73
2018-09-12T08:22:52.228Z,61.57
2018-09-12T08:25:21.108Z,4.37
2018-09-12T08:27:50.020Z,14.23
2018-09-12T08:30:19.017Z,10.83
2018-09-12T08:32:47.906Z,7.97
2018-09-12T08:35:18.228Z,5.70
2018-09-12T08:37:47.240Z,7.13
2018-09-12T08:40:16.133Z,7.37
2018-09-12T08:42:45.356Z,7.47
2018-09-12T08:45:14.269Z,5.93
2018-09-12T08:47:43.157Z,5.13
2018-09-12T08:50:12.100Z,5.70
2018-09-12T08:52:40.963Z,7.63
2018-09-12T08:55:09.875Z,6.53
2018-09-12T08:57:38.742Z,7.13
2018-09-12T09:00:07.947Z,6.60
2018-09-12T09:02:36.828Z,11.93
2018-09-12T09:05:05.772Z,7.43
2018-09-12T09:07:34.703Z,6.53
2018-09-12T09:10:07.753Z,8.23
2018-09-12T09:12:36.651Z,5.93
2018-09-12T09:15:05.847Z,6.17
2018-09-12T09:17:34.785Z,6.10
2018-09-12T09:20:03.661Z,7.53
2018-09-12T09:22:32.614Z,10.23
2018-09-12T09:25:01.500Z,8.17
2018-09-12T09:27:30.407Z,9.17
2018-09-12T09:29:59.313Z,12.33
2018-09-12T09:32:28.205Z,5.73
2018-09-12T09:34:57.162Z,11.90
2018-09-12T09:37:26.052Z,5.60
2018-09-12T09:39:54.946Z,5.93
2018-09-12T09:42:23.840Z,7.27
2018-09-12T09:44:52.833Z,10.37
2018-09-12T09:47:21.716Z,9.73
2018-09-12T09:49:54.716Z,5.63
2018-09-12T09:52:24.308Z,8.10
2018-09-12T09:54:53.354Z,6.13
2018-09-12T09:57:22.675Z,8.03
2018-09-12T09:59:51.991Z,6.03
2018-09-12T10:02:25.883Z,8.40
2018-09-12T10:04:59.857Z,9.03
2018-09-12T10:07:33.884Z,7.60
2018-09-12T10:10:05.594Z,6.03
2018-09-12T10:12:35.223Z,9.87
2018-09-12T10:15:05.233Z,8.30
2018-09-12T10:17:34.980Z,8.43
2018-09-12T10:20:04.050Z,7.30
2018-09-12T10:22:33.036Z,7.97
2018-09-12T10:25:01.925Z,7.37
2018-09-12T10:27:31.721Z,7.70
2018-09-12T10:30:00.626Z,5.07
2018-09-12T10:32:29.480Z,6.87
2018-09-12T10:34:58.416Z,8.20
2018-09-12T10:37:27.388Z,7.83
2018-09-12T10:39:56.272Z,5.73
2018-09-12T10:42:25.135Z,8.07
2018-09-12T10:44:54.040Z,6.03
2018-09-12T10:47:22.904Z,5.30
2018-09-12T10:49:52.017Z,7.50
2018-09-12T10:52:20.886Z,4.37
2018-09-12T10:54:49.782Z,5.27
2018-09-12T10:57:18.668Z,5.80
2018-09-12T10:59:47.568Z,5.73
2018-09-12T11:02:16.452Z,6.53
2018-09-12T11:04:45.315Z,8.33
2018-09-12T11:07:14.208Z,6.77
2018-09-12T11:09:43.126Z,4.87
2018-09-12T11:12:12.044Z,9.73
2018-09-12T11:14:40.973Z,9.87
2018-09-12T11:17:09.906Z,7.20
2018-09-12T11:19:38.788Z,8.07
2018-09-12T11:22:07.728Z,5.10
2018-09-12T11:24:36.624Z,7.80
2018-09-12T11:27:05.631Z,4.97
2018-09-12T11:29:34.535Z,5.53
2018-09-12T11:32:03.403Z,5.40
2018-09-12T11:34:32.344Z,6.37
2018-09-12T11:37:01.208Z,5.63
2018-09-12T11:39:30.156Z,7.47
2018-09-12T11:41:59.033Z,4.93
2018-09-12T11:44:27.951Z,11.97
2018-09-12T11:46:56.880Z,7.43
2018-09-12T11:49:25.734Z,6.40
2018-09-12T11:51:54.633Z,10.07
2018-09-12T11:54:23.503Z,6.10
2018-09-12T11:56:52.445Z,6.73
2018-09-12T11:59:21.334Z,7.13
2018-09-12T12:01:50.256Z,7.53
2018-09-12T12:04:19.156Z,5.07
2018-09-12T12:06:48.180Z,8.17
2018-09-12T12:09:17.089Z,8.00
2018-09-12T12:11:46.035Z,5.03
2018-09-12T12:14:14.944Z,5.23
2018-09-12T12:16:43.846Z,4.63
2018-09-12T12:19:12.811Z,5.03
2018-09-12T12:21:41.744Z,5.83
2018-09-12T12:24:10.628Z,6.07
2018-09-12T12:26:39.504Z,7.87
2018-09-12T12:29:08.436Z,5.83
2018-09-12T12:31:37.344Z,5.60
2018-09-12T12:34:06.226Z,9.10
2018-09-12T12:36:35.129Z,5.73
2018-09-12T12:39:04.999Z,9.00
2018-09-12T12:41:34.004Z,6.80
2018-09-12T12:44:02.890Z,9.73
2018-09-12T12:46:31.828Z,4.73
2018-09-12T12:49:00.778Z,5.40
2018-09-12T12:51:29.648Z,7.07
2018-09-12T12:53:58.524Z,5.07
2018-09-12T12:56:27.468Z,4.53
2018-09-12T12:58:56.412Z,5.27
2018-09-12T13:01:26.110Z,9.37
2018-09-12T13:03:55.120Z,5.93
2018-09-12T13:06:24.284Z,9.60
2018-09-12T13:08:53.149Z,7.83
2018-09-12T13:11:22.112Z,5.47
2018-09-12T13:13:51.093Z,5.17
2018-09-12T13:16:20.002Z,5.17
2018-09-12T13:18:49.259Z,6.40
2018-09-12T13:21:18.219Z,7.87
2018-09-12T13:23:47.107Z,5.77
2018-09-12T13:26:16.036Z,4.67
2018-09-12T13:28:45.013Z,4.77
2018-09-12T13:31:13.927Z,5.03
2018-09-12T13:33:42.803Z,4.53
2018-09-12T13:36:11.671Z,5.90
2018-09-12T13:38:40.549Z,4.67
2018-09-12T13:41:09.501Z,6.60
2018-09-12T13:43:38.435Z,5.60
2018-09-12T13:46:07.384Z,3.80
2018-09-12T13:48:36.253Z,6.57
2018-09-12T13:51:05.260Z,4.73
2018-09-12T13:53:34.137Z,4.93
2018-09-12T13:56:03.134Z,11.00
2018-09-12T13:58:32.080Z,7.07
2018-09-12T14:01:01.060Z,8.77
2018-09-12T14:03:29.963Z,5.93
2018-09-12T14:05:58.934Z,10.53
2018-09-12T14:08:27.831Z,6.80
2018-09-12T14:10:56.809Z,16.37
2018-09-12T14:13:25.900Z,6.83
2018-09-12T14:15:54.896Z,4.37
2018-09-12T14:18:23.868Z,9.77
2018-09-12T14:20:52.744Z,7.10
2018-09-12T14:23:21.712Z,8.67
2018-09-12T14:25:50.648Z,4.87
2018-09-12T14:28:19.573Z,7.73
2018-09-12T14:30:48.644Z,6.47
2018-09-12T14:33:17.565Z,5.53
2018-09-12T14:35:46.487Z,8.67
2018-09-12T14:38:15.517Z,5.97
2018-09-12T14:40:44.460Z,7.00
2018-09-12T14:43:13.380Z,8.23
2018-09-12T14:45:42.307Z,4.37
2018-09-12T14:48:11.235Z,4.13
2018-09-12T14:50:40.212Z,9.87
2018-09-12T14:53:09.139Z,5.67
2018-09-12T14:55:38.003Z,6.97
2018-09-12T14:58:06.920Z,5.47
2018-09-12T15:00:35.870Z,6.87
2018-09-12T15:03:04.780Z,5.30
2018-09-12T15:05:33.784Z,6.87
2018-09-12T15:08:02.698Z,6.80
2018-09-12T15:10:31.633Z,5.87
2018-09-12T15:13:00.540Z,7.77
2018-09-12T15:15:29.423Z,6.00
2018-09-12T15:17:58.286Z,5.77
2018-09-12T15:20:27.155Z,8.67
2018-09-12T15:22:56.040Z,9.90
2018-09-12T15:25:24.989Z,4.90
2018-09-12T15:27:53.895Z,7.50
2018-09-12T15:30:22.855Z,9.10
2018-09-12T15:32:51.729Z,5.80
2018-09-12T15:35:20.664Z,6.00
2018-09-12T15:37:49.560Z,6.83
2018-09-12T15:40:18.471Z,5.57
2018-09-12T15:42:47.475Z,7.50
2018-09-12T15:45:16.364Z,4.70
2018-09-12T15:47:45.275Z,3.90
2018-09-12T15:50:14.197Z,15.10
2018-09-12T15:52:43.097Z,7.30
2018-09-12T15:55:12.004Z,6.53
2018-09-12T15:57:41.777Z,5.60
2018-09-12T16:00:10.699Z,5.23
2018-09-12T16:02:39.688Z,4.87
2018-09-12T16:05:08.636Z,5.67
2018-09-12T16:07:37.527Z,12.73
2018-09-12T16:10:06.544Z,8.50
2018-09-12T16:12:35.489Z,5.87
2018-09-12T16:15:04.505Z,6.23
2018-09-12T16:17:33.388Z,6.37
2018-09-12T16:20:02.304Z,4.50
2018-09-12T16:22:31.179Z,7.77
2018-09-12T16:25:00.159Z,13.00
2018-09-12T16:27:29.159Z,5.90
2018-09-12T16:29:58.169Z,5.93
2018-09-12T16:32:27.194Z,13.30
2018-09-12T16:34:56.092Z,6.30
2018-09-12T16:37:24.976Z,13.23
2018-09-12T16:39:53.855Z,5.73
2018-09-12T16:42:22.737Z,6.57
2018-09-12T16:44:51.719Z,10.97
2018-09-12T16:47:20.586Z,9.73
2018-09-12T16:49:49.489Z,11.40
2018-09-12T16:52:18.369Z,7.50
2018-09-12T16:54:47.367Z,10.83
2018-09-12T16:57:16.355Z,9.60
2018-09-12T16:59:45.279Z,8.97
2018-09-12T17:02:14.172Z,7.33
2018-09-12T17:04:43.048Z,8.97
2018-09-12T17:07:11.974Z,8.53
2018-09-12T17:09:40.916Z,8.77
2018-09-12T17:12:10.104Z,324.60
2018-09-12T17:14:39.017Z,82.77
2018-09-12T17:17:07.970Z,37.97
2018-09-12T17:19:36.932Z,89.13
2018-09-12T17:22:05.824Z,66.00
2018-09-12T17:24:34.742Z,172.37
2018-09-12T17:27:03.670Z,316.07
2018-09-12T17:29:32.592Z,443.60
2018-09-12T17:32:01.531Z,101.43
2018-09-12T17:34:30.512Z,442.50
2018-09-12T17:36:59.394Z,272.53
2018-09-12T17:39:28.308Z,138.17
2018-09-12T17:41:57.311Z,104.13
2018-09-12T17:44:26.219Z,507.30
2018-09-12T17:46:55.215Z,301.13
2018-09-12T17:49:24.156Z,144.10
2018-09-12T17:51:53.147Z,158.87
2018-09-12T17:54:22.119Z,92.07
2018-09-12T17:56:51.097Z,202.97
2018-09-12T17:59:20.015Z,41.43
2018-09-12T18:01:48.924Z,36.37
2018-09-12T18:04:17.828Z,82.90
2018-09-12T18:06:46.705Z,67.57
2018-09-12T18:09:15.699Z,17.17
2018-09-12T18:11:44.594Z,17.10
2018-09-12T18:14:13.589Z,56.70
2018-09-12T18:16:42.515Z,26.27
2018-09-12T18:19:11.416Z,67.30
2018-09-12T18:21:40.944Z,23.37
2018-09-12T18:24:09.862Z,33.60
2018-09-12T18:26:39.072Z,21.57
2018-09-12T18:29:08.316Z,46.80
2018-09-12T18:31:37.222Z,18.63
2018-09-12T18:34:06.129Z,36.43
2018-09-12T18:36:35.026Z,17.23
2018-09-12T18:39:04.797Z,37.10
2018-09-12T18:41:33.820Z,57.43
2018-09-12T18:44:02.794Z,67.37
2018-09-12T18:46:31.749Z,32.40
2018-09-12T18:49:00.707Z,52.97
2018-09-12T18:51:29.600Z,45.73
2018-09-12T18:53:58.518Z,36.47
2018-09-12T18:56:27.412Z,32.33
2018-09-12T18:58:56.356Z,27.57
2018-09-12T19:01:25.340Z,22.07
2018-09-12T19:03:54.242Z,21.20
2018-09-12T19:06:23.132Z,22.67
2018-09-12T19:08:53.071Z,15.20
2018-09-12T19:11:22.068Z,16.57
2018-09-12T19:13:51.021Z,16.77
2018-09-12T19:16:20.065Z,20.67
2018-09-12T19:18:49.260Z,12.10
2018-09-12T19:21:18.499Z,13.90
2018-09-12T19:23:47.786Z,15.13
2018-09-12T19:26:17.235Z,11.93
2018-09-12T19:28:46.496Z,16.37
2018-09-12T19:31:15.424Z,14.53
2018-09-12T19:33:44.693Z,12.83
2018-09-12T19:36:13.926Z,9.87
2018-09-12T19:38:43.073Z,16.20
2018-09-12T19:41:12.285Z,9.90
2018-09-12T19:43:41.460Z,12.57
2018-09-12T19:46:10.744Z,13.27
2018-09-12T19:48:39.962Z,13.07
2018-09-12T19:51:16.305Z,11.70
2018-09-12T19:53:46.056Z,15.93
2018-09-12T19:56:15.992Z,13.80
2018-09-12T19:58:45.618Z,13.17
2018-09-12T20:01:14.876Z,11.93
2018-09-12T20:03:44.198Z,10.77
2018-09-12T20:06:13.400Z,11.90
2018-09-12T20:08:42.578Z,13.63
2018-09-12T20:11:11.808Z,14.93
2018-09-12T20:13:41.053Z,9.97
2018-09-12T20:16:10.288Z,14.80
2018-09-12T20:18:39.632Z,14.23
2018-09-12T20:21:09.254Z,15.37
2018-09-12T20:23:38.659Z,10.97
2018-09-12T20:26:07.759Z,13.50
2018-09-12T20:28:41.658Z,13.93
2018-09-12T20:31:11.254Z,12.60
2018-09-12T20:33:40.371Z,11.80
2018-09-12T20:36:09.746Z,14.23
2018-09-12T20:38:38.878Z,13.33
2018-09-12T20:41:08.151Z,14.80
2018-09-12T20:43:37.109Z,13.17
2018-09-12T20:46:06.379Z,22.70
2018-09-12T20:48:35.596Z,16.73
2018-09-12T20:51:04.891Z,21.70
2018-09-12T20:53:33.976Z,16.20
2018-09-12T20:56:03.324Z,17.67
2018-09-12T20:58:32.685Z,15.57
2018-09-12T21:01:02.024Z,12.13
2018-09-12T21:03:30.912Z,16.90
2018-09-12T21:06:00.164Z,13.53
2018-09-12T21:08:29.187Z,11.50
2018-09-12T21:10:58.553Z,13.07
2018-09-12T21:13:27.651Z,13.57
2018-09-12T21:15:56.948Z,13.77
2018-09-12T21:18:25.830Z,10.40
2018-09-12T21:20:54.964Z,12.47
2018-09-12T21:23:24.158Z,12.03
2018-09-12T21:25:53.337Z,12.87
2018-09-12T21:28:22.698Z,10.83
2018-09-12T21:30:51.596Z,13.27
2018-09-12T21:33:20.978Z,15.63
2018-09-12T21:35:50.322Z,14.30
2018-09-12T21:38:19.713Z,9.67
2018-09-12T21:40:48.960Z,11.07
2018-09-12T21:43:18.326Z,10.57
2018-09-12T21:45:47.426Z,12.70
2018-09-12T21:48:16.634Z,13.93
2018-09-12T21:50:45.832Z,11.57
2018-09-12T21:53:15.043Z,11.30
2018-09-12T21:55:44.188Z,10.93
2018-09-12T21:58:13.329Z,8.60
2018-09-12T22:00:42.702Z,9.80
2018-09-12T22:03:11.874Z,10.17
2018-09-12T22:05:40.748Z,10.70
2018-09-12T22:08:10.165Z,10.63
2018-09-12T22:10:39.560Z,10.50
2018-09-12T22:13:08.663Z,8.67
2018-09-12T22:15:37.916Z,11.00
2018-09-12T22:18:07.159Z,9.50
2018-09-12T22:20:36.366Z,7.93
2018-09-12T22:23:05.682Z,11.03
2018-09-12T22:25:34.931Z,10.97
2018-09-12T22:28:04.097Z,10.47
2018-09-12T22:30:33.351Z,8.80
2018-09-12T22:33:02.446Z,9.80
2018-09-12T22:35:31.398Z,8.03
2018-09-12T22:38:00.311Z,9.47
2018-09-12T22:40:29.195Z,11.87
2018-09-12T22:42:58.062Z,9.40
2018-09-12T22:45:27.080Z,13.87
2018-09-12T22:47:55.963Z,9.53
2018-09-12T22:50:24.854Z,8.10
2018-09-12T22:52:53.780Z,8.90
2018-09-12T22:55:22.659Z,10.13
2018-09-12T22:57:51.558Z,9.23
2018-09-12T23:00:20.504Z,7.90
2018-09-12T23:02:49.388Z,8.27
2018-09-12T23:05:18.310Z,8.60
2018-09-12T23:07:47.259Z,8.93
2018-09-12T23:10:16.153Z,11.23
2018-09-12T23:12:45.020Z,8.00
2018-09-12T23:15:13.929Z,11.47
2018-09-12T23:17:42.886Z,7.87
2018-09-12T23:20:11.768Z,8.83
2018-09-12T23:22:40.715Z,10.27
2018-09-12T23:25:09.653Z,8.70
2018-09-12T23:27:38.511Z,9.70
2018-09-12T23:30:07.490Z,12.77
2018-09-12T23:32:36.374Z,9.90
2018-09-12T23:35:05.352Z,11.43
2018-09-12T23:37:34.236Z,9.80
2018-09-12T23:40:03.177Z,9.43
2018-09-12T23:42:32.139Z,8.37
2018-09-12T23:45:01.030Z,18.80
2018-09-12T23:47:29.918Z,12.70
2018-09-12T23:49:58.792Z,8.07
2018-09-12T23:52:27.694Z,9.20
2018-09-12T23:54:56.579Z,12.43
2018-09-12T23:57:25.463Z,9.30
2018-09-12T23:59:54.335Z,9.83
